This is the latest recevied weather packets stored in our database for station/object VU3IZK-13. If no packets are shown the sender has not sent any weather packets the latest 1 day(s).
| Time | Temp. | Humidity | Pressure | Rain* | Wind** | Luminosity | Snow |
|---|---|---|---|---|---|---|---|
| 1778095808 | 25° C | 86% | 0 hPa | 49.78 mm | - | - | - |
| 1778092243 | 25° C | 85% | 0 hPa | 2.03 mm | - | - | - |
| 1778087709 | 26.11° C | 82% | 0 hPa | 5.59 mm | - | - | - |
| 1778085048 | 26.67° C | 79% | 0 hPa | 4.57 mm | - | - | - |
| 1778084124 | 26.67° C | 78% | 0 hPa | 1.78 mm | - | - | - |
| 1778078713 | 27.78° C | 75% | 0 hPa | 0 mm | - | - | - |
| 1778074225 | 28.89° C | 67% | 0 hPa | 0 mm | - | - | - |
| 1778071514 | 29.44° C | 65% | 0 hPa | 0 mm | - | - | - |
| 1778068810 | 33.89° C | 45% | 0 hPa | 0 mm | - | - | - |
| 1778067030 | 35° C | 35% | 0 hPa | 0 mm | - | - | - |
| 1778061615 | 35° C | 37% | 0 hPa | 0 mm | - | - | - |
| 1778058940 | 34.44° C | 39% | 0 hPa | 0 mm | - | - | - |
| 1778058018 | 34.44° C | 39% | 0 hPa | 0 mm | - | - | - |
| 1778053530 | 33.33° C | 46% | 0 hPa | 0 mm | - | - | - |
| 1778052609 | 33.33° C | 47% | 0 hPa | 0 mm | - | - | - |
| 1778051745 | 32.78° C | 48% | 0 hPa | 0 mm | - | - | - |
| 1778050820 | 32.78° C | 51% | 0 hPa | 0 mm | - | - | - |
| 1778049920 | 32.78° C | 51% | 0 hPa | 0 mm | - | - | - |
| 1778048117 | 31.67° C | 54% | 0 hPa | 0 mm | - | - | - |
| 1778046323 | 31.67° C | 56% | 0 hPa | 0 mm | - | - | - |
| 1778045444 | 31.67° C | 51% | 0 hPa | 0 mm | - | - | - |
| 1778044520 | 31.67° C | 53% | 0 hPa | 0 mm | - | - | - |
| 1778043618 | 31.11° C | 51% | 0 hPa | 0 mm | - | - | - |
| 1778042737 | 30° C | 53% | 0 hPa | 0 mm | - | - | - |
| 1778041820 | 28.89° C | 61% | 0 hPa | 0 mm | - | - | - |
* Rain latest hour (hover to see other rain measurements)
** Current wind speed in m/s (hover to see current wind gust speed)